createdAt,value
2023-04-02T00:00:19.580Z,75.50
2023-04-02T00:04:09.166Z,75.40
2023-04-02T00:07:33.613Z,75.38
2023-04-02T00:10:46.248Z,75.57
2023-04-02T00:13:52.180Z,75.07
2023-04-02T00:16:58.453Z,75.05
2023-04-02T00:20:09.109Z,75.17
2023-04-02T00:23:14.787Z,75.05
2023-04-02T00:26:32.725Z,75.11
2023-04-02T00:29:36.942Z,74.91
2023-04-02T00:32:42.314Z,74.94
2023-04-02T00:35:48.600Z,74.35
2023-04-02T00:38:58.105Z,74.07
2023-04-02T00:42:06.213Z,73.66
2023-04-02T00:45:24.999Z,73.34
2023-04-02T00:48:32.019Z,73.80
2023-04-02T00:51:41.828Z,74.40
2023-04-02T00:54:51.544Z,74.09
2023-04-02T00:57:57.892Z,74.08
2023-04-02T01:01:02.843Z,74.35
2023-04-02T01:04:27.578Z,73.88
2023-04-02T01:07:53.097Z,74.19
2023-04-02T01:11:10.626Z,73.84
2023-04-02T01:14:29.696Z,73.98
2023-04-02T01:17:58.636Z,74.23
2023-04-02T01:21:30.556Z,74.12
2023-04-02T01:24:37.335Z,74.12
2023-04-02T01:28:05.125Z,73.99
2023-04-02T01:31:10.691Z,74.41
2023-04-02T01:34:18.134Z,74.02
2023-04-02T01:37:46.825Z,74.03
2023-04-02T01:41:03.963Z,73.89
2023-04-02T01:44:14.475Z,74.05
2023-04-02T01:47:25.604Z,74.05
2023-04-02T01:50:37.291Z,74.02
2023-04-02T01:53:41.753Z,74.04
2023-04-02T01:56:47.381Z,74.02
2023-04-02T01:59:51.689Z,74.22
2023-04-02T02:02:56.772Z,74.13
2023-04-02T02:06:03.136Z,74.56
2023-04-02T02:09:12.426Z,74.21
2023-04-02T02:12:16.600Z,74.12
2023-04-02T02:15:23.484Z,74.39
2023-04-02T02:18:28.385Z,74.40
2023-04-02T02:21:40.307Z,74.39
2023-04-02T02:24:44.928Z,74.22
2023-04-02T02:27:59.193Z,74.11
2023-04-02T02:31:17.921Z,74.12
2023-04-02T02:34:29.483Z,74.38
2023-04-02T02:37:40.728Z,74.61
2023-04-02T02:40:46.793Z,75.15
2023-04-02T02:44:02.383Z,75.18
2023-04-02T02:47:25.112Z,75.07
2023-04-02T02:50:32.959Z,75.03
2023-04-02T02:53:48.955Z,75.20
2023-04-02T02:57:00.405Z,75.15
2023-04-02T03:00:09.662Z,75.47
2023-04-02T03:03:19.533Z,75.73
2023-04-02T03:06:26.223Z,75.41
2023-04-02T03:09:45.997Z,75.35
2023-04-02T03:13:02.403Z,75.11
2023-04-02T03:16:13.209Z,74.91
2023-04-02T03:19:26.514Z,75.12
2023-04-02T03:22:38.637Z,75.17
2023-04-02T03:26:05.074Z,75.00
2023-04-02T03:29:26.272Z,74.88
2023-04-02T03:32:37.473Z,75.25
2023-04-02T03:35:54.818Z,75.21
2023-04-02T03:39:15.022Z,74.98
2023-04-02T03:42:26.252Z,74.95
2023-04-02T03:45:43.477Z,74.85
2023-04-02T03:49:10.965Z,74.91
2023-04-02T03:52:24.701Z,74.79
2023-04-02T03:55:32.878Z,74.80
2023-04-02T03:58:49.998Z,74.37
2023-04-02T04:01:59.057Z,74.32
2023-04-02T04:05:07.205Z,74.56
2023-04-02T04:08:19.171Z,74.44
2023-04-02T04:11:30.980Z,74.51
2023-04-02T04:14:42.336Z,74.10
2023-04-02T04:18:19.848Z,74.13
2023-04-02T04:21:39.972Z,74.18
2023-04-02T04:24:54.434Z,74.40
2023-04-02T04:28:24.241Z,74.54
2023-04-02T04:31:34.092Z,74.46
2023-04-02T04:34:47.026Z,74.40
2023-04-02T04:38:03.904Z,74.56
2023-04-02T04:41:16.061Z,74.20
2023-04-02T04:44:39.120Z,74.24
2023-04-02T04:47:51.843Z,74.25
2023-04-02T04:51:01.451Z,74.13
2023-04-02T04:54:05.732Z,74.31
2023-04-02T04:57:21.779Z,74.19
2023-04-02T05:00:50.112Z,74.34
2023-04-02T05:04:12.280Z,74.46
2023-04-02T05:07:23.387Z,74.49
2023-04-02T05:10:37.473Z,74.78
2023-04-02T05:13:50.580Z,74.93
2023-04-02T05:17:10.382Z,74.88
2023-04-02T05:20:29.747Z,74.86
2023-04-02T05:24:07.806Z,74.92
2023-04-02T05:27:37.966Z,74.93
2023-04-02T05:31:12.459Z,74.96
2023-04-02T05:34:25.956Z,75.26
2023-04-02T05:37:31.134Z,75.38
2023-04-02T05:40:41.485Z,75.78
2023-04-02T05:43:48.256Z,75.82
2023-04-02T05:47:08.865Z,75.77
2023-04-02T05:50:37.089Z,75.90
2023-04-02T05:53:49.832Z,75.64
2023-04-02T05:57:03.031Z,75.60
2023-04-02T06:00:43.580Z,75.69
2023-04-02T06:04:19.024Z,75.86
2023-04-02T06:07:29.375Z,75.78
2023-04-02T06:10:44.157Z,75.42
2023-04-02T06:13:48.248Z,75.34
2023-04-02T06:16:53.334Z,75.16
2023-04-02T06:19:59.840Z,75.05
2023-04-02T06:23:12.000Z,75.15
2023-04-02T06:26:27.281Z,75.07
2023-04-02T06:29:40.138Z,74.55
2023-04-02T06:32:48.943Z,74.73
2023-04-02T06:35:55.484Z,74.02
2023-04-02T06:39:11.371Z,73.92
2023-04-02T06:42:33.093Z,73.95
2023-04-02T06:45:46.589Z,74.60
2023-04-02T06:49:42.989Z,74.58
2023-04-02T06:52:52.158Z,74.45
2023-04-02T06:56:13.331Z,74.71
2023-04-02T06:59:19.534Z,74.65
2023-04-02T07:02:35.802Z,74.65
2023-04-02T07:05:43.065Z,74.46
2023-04-02T07:08:48.434Z,74.22
2023-04-02T07:11:53.107Z,74.40
2023-04-02T07:14:57.320Z,74.05
2023-04-02T07:18:01.788Z,73.70
2023-04-02T07:21:06.091Z,73.53
2023-04-02T07:24:10.387Z,73.54
2023-04-02T07:27:15.337Z,73.44
2023-04-02T07:30:19.650Z,73.46
2023-04-02T07:33:27.262Z,73.57
2023-04-02T07:36:31.270Z,73.36
2023-04-02T07:39:37.253Z,73.20
2023-04-02T07:42:42.984Z,72.98
2023-04-02T07:45:46.887Z,73.27
2023-04-02T07:48:50.841Z,73.03
2023-04-02T07:51:54.827Z,73.21
2023-04-02T07:54:58.738Z,72.73
2023-04-02T07:58:03.158Z,72.48
2023-04-02T08:01:16.807Z,72.23
2023-04-02T08:04:23.039Z,71.78
2023-04-02T08:07:28.172Z,72.00
2023-04-02T08:10:32.131Z,71.64
2023-04-02T08:13:36.569Z,71.99
2023-04-02T08:16:54.074Z,71.76
2023-04-02T08:20:01.218Z,71.57
2023-04-02T08:23:07.025Z,71.75
2023-04-02T08:26:17.473Z,71.52
2023-04-02T08:29:21.743Z,71.29
2023-04-02T08:32:29.070Z,71.46
2023-04-02T08:35:33.364Z,71.28
2023-04-02T08:38:37.463Z,71.38
2023-04-02T08:41:49.042Z,71.21
2023-04-02T08:45:23.097Z,71.30
2023-04-02T08:48:32.827Z,71.34
2023-04-02T08:51:37.826Z,71.34
2023-04-02T08:54:43.648Z,71.43
2023-04-02T08:57:58.181Z,71.79
2023-04-02T09:01:06.391Z,71.57
2023-04-02T09:04:20.175Z,71.43
2023-04-02T09:07:26.497Z,70.96
2023-04-02T09:10:44.652Z,71.03
2023-04-02T09:13:55.223Z,70.27
2023-04-02T09:17:01.705Z,70.40
2023-04-02T09:20:21.378Z,70.61
2023-04-02T09:23:27.412Z,70.89
2023-04-02T09:26:33.911Z,71.52
2023-04-02T09:29:46.017Z,71.22
2023-04-02T09:32:52.659Z,71.15
2023-04-02T09:35:58.143Z,71.63
2023-04-02T09:39:21.661Z,71.71
2023-04-02T09:42:34.278Z,71.16
2023-04-02T09:45:39.498Z,71.42
2023-04-02T09:48:45.862Z,71.67
2023-04-02T09:52:06.678Z,71.50
2023-04-02T09:55:25.519Z,71.45
2023-04-02T09:58:29.546Z,71.86
2023-04-02T10:01:37.513Z,71.72
2023-04-02T10:04:44.658Z,71.85
2023-04-02T10:07:53.175Z,71.95
2023-04-02T10:11:01.278Z,71.56
2023-04-02T10:14:12.138Z,71.85
2023-04-02T10:17:22.247Z,71.65
2023-04-02T10:20:29.346Z,71.35
2023-04-02T10:23:34.965Z,71.37
2023-04-02T10:27:04.875Z,71.27
2023-04-02T10:30:27.932Z,70.48
2023-04-02T10:33:37.429Z,70.62
2023-04-02T10:36:52.651Z,70.74
2023-04-02T10:40:12.091Z,71.20
2023-04-02T10:43:39.814Z,71.29
2023-04-02T10:47:02.539Z,71.35
2023-04-02T10:50:45.680Z,71.14
2023-04-02T10:53:55.558Z,71.21
2023-04-02T10:57:32.354Z,71.55
2023-04-02T11:00:42.146Z,71.81
2023-04-02T11:03:57.835Z,71.87
2023-04-02T11:07:13.809Z,72.01
2023-04-02T11:10:21.383Z,71.95
2023-04-02T11:13:33.174Z,72.16
2023-04-02T11:16:41.301Z,72.45
2023-04-02T11:19:47.756Z,72.27
2023-04-02T11:23:12.762Z,72.04
2023-04-02T11:26:42.810Z,72.01
2023-04-02T11:29:50.388Z,72.02
2023-04-02T11:32:56.398Z,72.19
2023-04-02T11:36:00.681Z,72.35
2023-04-02T11:39:16.465Z,72.38
2023-04-02T11:42:25.091Z,72.76
2023-04-02T11:45:29.002Z,73.10
2023-04-02T11:48:36.251Z,72.95
2023-04-02T11:51:40.810Z,73.24
2023-04-02T11:54:46.546Z,73.71
2023-04-02T11:58:02.586Z,73.77
2023-04-02T12:01:11.822Z,73.87
2023-04-02T12:04:34.158Z,74.54
2023-04-02T12:07:56.810Z,74.52
2023-04-02T12:11:02.546Z,75.11
2023-04-02T12:14:44.268Z,75.18
2023-04-02T12:17:48.351Z,74.97
2023-04-02T12:20:57.525Z,74.97
2023-04-02T12:24:03.557Z,74.81
2023-04-02T12:27:22.793Z,75.20
2023-04-02T12:30:27.068Z,74.47
2023-04-02T12:33:37.546Z,75.26
2023-04-02T12:36:54.716Z,75.42
2023-04-02T12:40:07.042Z,75.94
2023-04-02T12:43:23.711Z,75.92
2023-04-02T12:46:29.776Z,75.90
2023-04-02T12:49:40.312Z,75.67
2023-04-02T12:52:53.413Z,75.07
2023-04-02T12:55:57.679Z,75.38
2023-04-02T12:59:01.941Z,75.54
2023-04-02T13:02:21.194Z,75.33
2023-04-02T13:05:32.658Z,75.44
2023-04-02T13:08:43.224Z,75.66
2023-04-02T13:11:47.144Z,75.64
2023-04-02T13:14:59.176Z,75.52
2023-04-02T13:18:06.327Z,75.39
2023-04-02T13:21:16.298Z,75.58
2023-04-02T13:24:23.488Z,75.87
2023-04-02T13:27:27.393Z,75.39
2023-04-02T13:30:31.760Z,75.28
2023-04-02T13:33:35.731Z,75.14
2023-04-02T13:36:39.748Z,74.92
2023-04-02T13:39:43.653Z,75.11
2023-04-02T13:42:49.941Z,75.13
2023-04-02T13:45:55.857Z,74.31
2023-04-02T13:49:00.640Z,74.27
2023-04-02T13:52:05.410Z,74.48
2023-04-02T13:55:10.658Z,74.75
2023-04-02T13:58:14.830Z,74.79
2023-04-02T14:01:22.254Z,74.39
2023-04-02T14:04:31.580Z,74.09
2023-04-02T14:07:57.393Z,73.59
2023-04-02T14:11:20.038Z,73.83
2023-04-02T14:15:09.028Z,74.00
2023-04-02T14:18:27.932Z,74.06
2023-04-02T14:21:53.183Z,74.11
2023-04-02T14:25:09.305Z,74.29
2023-04-02T14:28:38.009Z,74.66
2023-04-02T14:31:48.961Z,74.48
2023-04-02T14:35:19.838Z,73.87
2023-04-02T14:38:34.981Z,74.04
2023-04-02T14:41:57.817Z,74.34
2023-04-02T14:45:34.523Z,74.78
2023-04-02T14:49:09.240Z,74.47
2023-04-02T14:52:21.668Z,74.52
2023-04-02T14:55:40.003Z,74.66
2023-04-02T14:58:48.856Z,74.70
2023-04-02T15:02:07.306Z,75.10
2023-04-02T15:05:22.684Z,75.54
2023-04-02T15:09:02.122Z,75.52
2023-04-02T15:12:21.813Z,75.48
2023-04-02T15:15:36.951Z,75.89
2023-04-02T15:18:43.894Z,76.35
2023-04-02T15:21:59.875Z,76.39
2023-04-02T15:25:15.972Z,76.62
2023-04-02T15:28:29.113Z,76.87
2023-04-02T15:31:35.521Z,76.97
2023-04-02T15:35:08.383Z,77.06
2023-04-02T15:38:23.036Z,77.20
2023-04-02T15:41:37.742Z,77.20
2023-04-02T15:44:57.977Z,77.16
2023-04-02T15:48:15.829Z,77.00
2023-04-02T15:51:30.493Z,77.10
2023-04-02T15:54:45.999Z,77.01
2023-04-02T15:57:59.212Z,77.06
2023-04-02T16:01:37.571Z,77.09
2023-04-02T16:04:51.281Z,77.17
2023-04-02T16:08:18.071Z,77.21
2023-04-02T16:11:22.133Z,77.41
2023-04-02T16:14:34.054Z,77.65
2023-04-02T16:17:43.879Z,77.82
2023-04-02T16:20:51.061Z,77.70
2023-04-02T16:23:55.211Z,77.99
2023-04-02T16:27:27.387Z,77.96
2023-04-02T16:30:52.127Z,78.10
2023-04-02T16:34:09.926Z,78.31
2023-04-02T16:37:28.440Z,78.32
2023-04-02T16:41:08.319Z,78.17
2023-04-02T16:44:40.974Z,78.59
2023-04-02T16:47:53.312Z,78.64
2023-04-02T16:51:12.802Z,78.92
2023-04-02T16:54:26.007Z,78.81
2023-04-02T16:57:36.893Z,78.96
2023-04-02T17:01:14.858Z,79.09
2023-04-02T17:04:46.518Z,79.39
2023-04-02T17:08:11.306Z,79.29
2023-04-02T17:11:31.597Z,79.31
2023-04-02T17:14:51.569Z,79.33
2023-04-02T17:18:00.374Z,79.48
2023-04-02T17:21:07.493Z,79.62
2023-04-02T17:24:18.076Z,79.51
2023-04-02T17:27:22.029Z,79.56
2023-04-02T17:30:40.541Z,79.52
2023-04-02T17:33:44.553Z,79.58
2023-04-02T17:36:57.306Z,79.44
2023-04-02T17:40:40.509Z,79.58
2023-04-02T17:44:04.370Z,79.74
2023-04-02T17:47:38.053Z,79.85
2023-04-02T17:51:30.507Z,79.76
2023-04-02T17:54:52.995Z,79.66
2023-04-02T17:58:05.218Z,79.98
2023-04-02T18:01:17.622Z,80.04
2023-04-02T18:04:49.905Z,80.10
2023-04-02T18:07:59.606Z,80.11
2023-04-02T18:11:10.630Z,80.02
2023-04-02T18:14:40.967Z,79.88
2023-04-02T18:17:48.574Z,80.01
2023-04-02T18:21:15.726Z,79.86
2023-04-02T18:24:46.387Z,79.69
2023-04-02T18:28:09.228Z,79.87
2023-04-02T18:31:27.942Z,79.78
2023-04-02T18:35:01.984Z,79.42
2023-04-02T18:38:11.756Z,79.40
2023-04-02T18:41:43.823Z,79.38
2023-04-02T18:44:50.588Z,78.87
2023-04-02T18:48:10.387Z,79.07
2023-04-02T18:51:23.127Z,78.85
2023-04-02T18:54:43.180Z,79.05
2023-04-02T18:57:51.578Z,79.27
2023-04-02T19:00:57.481Z,79.40
2023-04-02T19:04:06.470Z,79.03
2023-04-02T19:07:18.519Z,78.89
2023-04-02T19:10:36.718Z,78.71
2023-04-02T19:13:41.195Z,78.38
2023-04-02T19:17:13.063Z,78.07
2023-04-02T19:20:16.990Z,78.39
2023-04-02T19:23:42.692Z,77.95
2023-04-02T19:26:57.200Z,78.03
2023-04-02T19:30:39.070Z,77.78
2023-04-02T19:33:42.964Z,77.62
2023-04-02T19:37:01.113Z,77.95
2023-04-02T19:40:11.708Z,77.71
2023-04-02T19:43:16.032Z,77.72
2023-04-02T19:46:20.154Z,78.01
2023-04-02T19:49:28.501Z,78.01
2023-04-02T19:52:32.390Z,78.03
2023-04-02T19:55:36.834Z,77.89
2023-04-02T19:58:41.011Z,77.25
2023-04-02T20:01:45.655Z,77.20
2023-04-02T20:04:49.763Z,76.40
2023-04-02T20:07:53.695Z,75.60
2023-04-02T20:11:00.960Z,76.02
2023-04-02T20:14:05.908Z,75.87
2023-04-02T20:17:09.841Z,74.46
2023-04-02T20:20:15.980Z,74.79
2023-04-02T20:23:20.507Z,74.89
2023-04-02T20:26:24.430Z,75.21
2023-04-02T20:29:30.706Z,74.79
2023-04-02T20:32:36.556Z,74.60
2023-04-02T20:35:41.908Z,74.16
2023-04-02T20:38:46.002Z,73.24
2023-04-02T20:41:50.040Z,73.69
2023-04-02T20:44:53.970Z,73.82
2023-04-02T20:47:57.973Z,73.86
2023-04-02T20:51:04.275Z,74.14
2023-04-02T20:54:08.213Z,73.99
2023-04-02T20:57:12.294Z,74.14
2023-04-02T21:00:17.791Z,74.31
2023-04-02T21:03:21.717Z,74.29
2023-04-02T21:06:28.602Z,74.25
2023-04-02T21:09:32.611Z,74.04
2023-04-02T21:12:36.853Z,73.49
2023-04-02T21:15:44.496Z,71.53
2023-04-02T21:18:51.567Z,69.58
2023-04-02T21:21:55.536Z,69.51
2023-04-02T21:24:59.472Z,68.03
2023-04-02T21:28:03.905Z,67.21
2023-04-02T21:31:11.027Z,67.71
2023-04-02T21:34:16.992Z,66.19
2023-04-02T21:37:21.332Z,65.72
2023-04-02T21:40:25.264Z,63.29
2023-04-02T21:43:29.327Z,64.36
2023-04-02T21:46:39.081Z,64.12
2023-04-02T21:49:43.135Z,62.77
2023-04-02T21:52:47.027Z,61.39
2023-04-02T21:56:01.021Z,62.59
2023-04-02T21:59:06.981Z,63.51
2023-04-02T22:02:11.201Z,62.54
2023-04-02T22:05:15.834Z,61.84
2023-04-02T22:08:19.660Z,61.72
2023-04-02T22:11:27.769Z,61.96
2023-04-02T22:14:32.247Z,61.25
2023-04-02T22:17:36.297Z,60.23
2023-04-02T22:20:41.736Z,60.86
2023-04-02T22:23:46.654Z,60.36
2023-04-02T22:26:51.527Z,60.92
2023-04-02T22:29:55.502Z,60.58
2023-04-02T22:32:59.589Z,60.12
2023-04-02T22:36:05.051Z,60.84
2023-04-02T22:39:12.374Z,60.78
2023-04-02T22:42:16.923Z,60.72
2023-04-02T22:45:21.329Z,60.98
2023-04-02T22:48:25.302Z,61.14
2023-04-02T22:51:29.457Z,60.71
2023-04-02T22:54:33.385Z,60.16
2023-04-02T22:57:37.829Z,60.49
2023-04-02T23:00:42.526Z,60.44
2023-04-02T23:03:46.553Z,59.77
2023-04-02T23:06:50.468Z,59.43
2023-04-02T23:09:54.386Z,59.69
2023-04-02T23:12:58.378Z,59.66
2023-04-02T23:16:04.306Z,59.61
2023-04-02T23:19:08.313Z,59.62
2023-04-02T23:22:12.314Z,59.14
2023-04-02T23:25:16.436Z,59.89
2023-04-02T23:28:20.434Z,59.64
2023-04-02T23:31:25.174Z,59.49
2023-04-02T23:34:29.021Z,59.27
2023-04-02T23:37:33.584Z,59.30
2023-04-02T23:40:37.700Z,58.53
2023-04-02T23:43:42.870Z,59.15
2023-04-02T23:46:46.979Z,59.32
2023-04-02T23:49:50.942Z,59.23
2023-04-02T23:52:54.865Z,59.08
2023-04-02T23:55:59.197Z,58.86
2023-04-02T23:59:03.751Z,58.74
